Melfort, Canada
Current Conditions -  °F | °C
As of 9:00 PM on Friday 21 Nov 2014 (Local Time) from CYBU Reporting Station
Overcast Overcast  
Wind Chill: 13°   Ceiling: 1200
Heat Index: 25°   Visibility: 9mi
Dew Point: 23°   Wind: 14mph
Humidity: 93%   Direction: 310°NW
Pressure: 29.6"   Gusts: NA
Location:  52.86°N, 104.62°W
Report Text: CYBU 220300Z AUTO 31012KT 9SM OVC012 M04/M05 A2960 RMK SLP045
Loading
Personal Weather Stations






























Interactive Weather Map New forecast layout! Learn more

10-Day Weather Forecast

Advertisements
Track Severe Weather on mobile